Time;durP1;ratioP1;P1;durP2;ratioP2;P2;SDS_P1;SDS_P2;PMS_P1;PMS_P2;Temp;Humidity;BMP_temperature;BMP_pressure;BME280_temperature;BME280_humidity;BME280_pressure;Samples;Min_cycle;Max_cycle;Signal;HPM_P1;HPM_P2
2023/05/14 00:00:13;;;;;;;18.08;11.82;;;12.20;99.90;;;;;;5093047;28;20044;-66
2023/05/14 00:02:39;;;;;;;17.48;11.30;;;12.20;99.90;;;;;;5092974;28;20067;-66
2023/05/14 00:05:05;;;;;;;16.98;10.00;;;12.20;99.90;;;;;;5092794;28;20503;-66
2023/05/14 00:07:31;;;;;;;16.27;10.50;;;12.30;99.90;;;;;;5092403;28;20043;-66
2023/05/14 00:09:57;;;;;;;21.10;11.38;;;12.30;99.90;;;;;;5092740;28;20170;-66
2023/05/14 00:12:22;;;;;;;17.15;10.98;;;12.30;99.90;;;;;;5092793;28;20131;-66
2023/05/14 00:14:48;;;;;;;19.40;11.00;;;12.30;99.90;;;;;;5092768;28;20075;-66
2023/05/14 00:17:13;;;;;;;19.23;11.95;;;12.30;99.90;;;;;;5092335;28;20323;-67
2023/05/14 00:19:40;;;;;;;22.55;11.32;;;12.30;99.90;;;;;;5092467;28;20042;-66
2023/05/14 00:22:07;;;;;;;17.92;11.25;;;12.30;99.90;;;;;;5092351;28;20511;-67
2023/05/14 00:24:33;;;;;;;18.40;11.77;;;12.30;99.90;;;;;;5092643;28;20040;-66
2023/05/14 00:26:59;;;;;;;17.23;10.90;;;12.10;99.90;;;;;;5092430;28;20032;-67
2023/05/14 00:29:25;;;;;;;19.30;11.07;;;12.10;99.90;;;;;;5092492;28;20556;-67
2023/05/14 00:31:50;;;;;;;17.08;10.32;;;12.10;99.90;;;;;;5092348;28;20032;-67
2023/05/14 00:34:16;;;;;;;13.90;10.25;;;12.20;99.90;;;;;;5092236;28;20036;-67
2023/05/14 00:36:41;;;;;;;16.95;10.95;;;12.20;99.90;;;;;;5091940;28;20062;-66
2023/05/14 00:39:07;;;;;;;17.65;10.68;;;12.20;99.90;;;;;;5092121;28;20036;-66
2023/05/14 00:41:32;;;;;;;11.75;9.15;;;12.30;99.90;;;;;;5092367;28;20036;-66
2023/05/14 00:43:58;;;;;;;15.10;10.68;;;12.30;99.90;;;;;;5092276;28;20449;-66
2023/05/14 00:46:24;;;;;;;18.08;10.95;;;12.30;99.90;;;;;;5092012;28;20073;-66
2023/05/14 00:48:50;;;;;;;17.92;10.52;;;12.30;99.90;;;;;;5091660;28;20028;-66
2023/05/14 00:51:17;;;;;;;14.32;10.63;;;12.30;99.90;;;;;;5092386;28;20044;-67
2023/05/14 00:53:43;;;;;;;17.08;10.40;;;12.40;99.90;;;;;;5091940;28;20384;-66
2023/05/14 00:56:09;;;;;;;19.02;10.55;;;12.30;99.90;;;;;;5091917;28;20044;-66
2023/05/14 00:58:35;;;;;;;17.83;10.95;;;12.20;99.90;;;;;;5091915;28;20043;-66
2023/05/14 01:01:00;;;;;;;14.55;10.38;;;12.20;99.90;;;;;;5073662;28;20479;-66
2023/05/14 01:03:26;;;;;;;15.70;10.15;;;12.20;99.90;;;;;;5091902;28;20043;-66
2023/05/14 01:06:10;;;;;;;19.20;11.02;;;12.20;99.90;;;;;;5091630;28;20039;-66
2023/05/14 01:09:13;;;;;;;17.95;10.63;;;12.20;99.90;;;;;;5091810;28;20036;-66
2023/05/14 01:11:46;;;;;;;16.87;10.43;;;12.20;99.90;;;;;;5091810;28;20150;-66
2023/05/14 01:14:29;;;;;;;17.80;9.90;;;12.30;99.90;;;;;;5091739;28;20051;-67
2023/05/14 01:16:57;;;;;;;19.58;11.45;;;12.10;99.90;;;;;;5091862;28;20411;-66
2023/05/14 01:19:32;;;;;;;15.98;9.48;;;12.10;99.90;;;;;;5091908;28;20036;-67
2023/05/14 01:21:58;;;;;;;17.52;10.32;;;12.10;99.90;;;;;;5092006;28;20036;-67
2023/05/14 01:24:23;;;;;;;18.58;10.82;;;12.10;99.90;;;;;;5091597;28;20039;-67
2023/05/14 01:26:49;;;;;;;15.20;11.05;;;12.10;99.90;;;;;;5091812;28;20044;-67
2023/05/14 01:29:20;;;;;;;12.43;9.63;;;12.00;99.90;;;;;;5091856;28;20089;-67
2023/05/14 01:31:48;;;;;;;14.48;10.48;;;12.00;99.90;;;;;;5091697;28;20046;-66
2023/05/14 01:34:18;;;;;;;12.23;8.98;;;12.00;99.90;;;;;;5091527;28;20546;-67
2023/05/14 01:36:46;;;;;;;13.50;8.80;;;12.00;99.90;;;;;;5091355;28;20123;-66
2023/05/14 01:39:14;;;;;;;13.95;9.90;;;12.00;99.90;;;;;;5091652;28;20450;-67
2023/05/14 01:41:41;;;;;;;13.68;9.20;;;12.00;99.90;;;;;;5091636;28;20032;-67
2023/05/14 01:44:08;;;;;;;14.45;9.68;;;12.00;99.90;;;;;;5091611;28;20050;-67
2023/05/14 01:46:34;;;;;;;15.85;9.05;;;12.00;99.90;;;;;;5091504;28;20284;-67
2023/05/14 01:49:00;;;;;;;11.82;8.35;;;12.00;99.90;;;;;;5091265;28;20036;-67
2023/05/14 01:51:26;;;;;;;15.13;8.73;;;12.00;99.90;;;;;;5091229;28;20079;-67
2023/05/14 01:53:51;;;;;;;13.75;8.90;;;11.90;99.90;;;;;;5073303;28;20120;-66
2023/05/14 01:56:18;;;;;;;15.82;9.00;;;12.00;99.90;;;;;;5091384;28;20043;-66
2023/05/14 01:58:44;;;;;;;15.65;9.02;;;12.00;99.90;;;;;;5091199;28;20082;-66
2023/05/14 02:01:09;;;;;;;16.92;9.20;;;12.00;99.90;;;;;;5092238;28;20032;-66
2023/05/14 02:03:35;;;;;;;17.73;8.65;;;12.10;99.90;;;;;;5077328;28;20116;-67
2023/05/14 02:06:00;;;;;;;13.70;8.48;;;12.10;99.90;;;;;;5094987;28;20036;-67
2023/05/14 02:08:26;;;;;;;17.73;9.95;;;12.10;99.90;;;;;;5095348;28;20043;-67
2023/05/14 02:10:52;;;;;;;15.00;8.55;;;12.10;99.90;;;;;;5095157;28;20499;-67
2023/05/14 02:13:18;;;;;;;15.85;9.23;;;12.00;99.90;;;;;;5095165;28;20044;-67
2023/05/14 02:15:43;;;;;;;13.15;9.32;;;12.00;99.90;;;;;;5094902;28;20036;-66
2023/05/14 02:18:09;;;;;;;12.93;9.55;;;12.00;99.90;;;;;;5095247;28;20089;-67
2023/05/14 02:20:34;;;;;;;13.18;8.88;;;11.90;99.90;;;;;;5094724;28;20038;-67
2023/05/14 02:23:00;;;;;;;12.82;8.80;;;11.90;99.90;;;;;;5095035;28;20066;-66
2023/05/14 02:25:25;;;;;;;16.45;10.15;;;11.80;99.90;;;;;;5094701;28;20036;-67
2023/05/14 02:27:51;;;;;;;15.52;9.00;;;11.60;99.90;;;;;;5094766;28;20070;-67
2023/05/14 02:30:16;;;;;;;17.90;9.68;;;11.60;99.90;;;;;;5094878;28;20036;-66
2023/05/14 02:32:42;;;;;;;15.90;9.68;;;11.60;99.90;;;;;;5094715;28;20116;-66
2023/05/14 02:35:08;;;;;;;15.27;9.32;;;11.60;99.90;;;;;;5094560;28;20415;-67
2023/05/14 02:37:34;;;;;;;18.95;8.70;;;11.50;99.90;;;;;;5094335;28;20067;-67
2023/05/14 02:39:59;;;;;;;16.48;8.95;;;11.50;99.90;;;;;;5094765;28;20036;-67
2023/05/14 02:42:25;;;;;;;16.08;8.55;;;11.50;99.90;;;;;;5094587;28;20043;-67
2023/05/14 02:44:51;;;;;;;14.60;9.18;;;11.50;99.90;;;;;;5094861;28;20101;-66
2023/05/14 02:47:17;;;;;;;27.52;10.00;;;11.50;99.90;;;;;;5094191;28;20077;-66
2023/05/14 02:49:43;;;;;;;14.80;9.88;;;11.40;99.90;;;;;;5094302;28;20404;-66
2023/05/14 02:52:08;;;;;;;18.67;8.80;;;11.40;99.90;;;;;;5094205;28;20143;-67
2023/05/14 02:54:34;;;;;;;11.48;7.90;;;11.40;99.90;;;;;;5094416;28;20036;-66
2023/05/14 02:56:59;;;;;;;15.60;9.20;;;11.50;99.90;;;;;;5094167;28;20050;-66
2023/05/14 02:59:25;;;;;;;16.58;8.57;;;11.50;99.90;;;;;;5094219;28;20038;-66
2023/05/14 03:01:51;;;;;;;13.48;8.65;;;11.40;99.90;;;;;;5093949;28;20032;-67
2023/05/14 03:04:17;;;;;;;14.00;8.70;;;11.50;99.90;;;;;;5093979;28;20097;-66
2023/05/14 03:06:42;;;;;;;20.25;8.80;;;11.50;99.90;;;;;;5093792;28;20058;-66
2023/05/14 03:09:08;;;;;;;12.80;9.32;;;11.50;99.90;;;;;;5093979;28;20044;-67
2023/05/14 03:11:34;;;;;;;17.05;9.23;;;11.50;99.90;;;;;;5093763;28;20032;-67
2023/05/14 03:14:00;;;;;;;16.35;9.85;;;11.40;99.90;;;;;;5093968;28;20068;-67
2023/05/14 03:16:25;;;;;;;16.17;9.63;;;11.40;99.90;;;;;;5093765;28;20530;-66
2023/05/14 03:18:51;;;;;;;16.58;9.02;;;11.50;99.90;;;;;;5093525;28;20088;-66
2023/05/14 03:21:17;;;;;;;18.77;9.30;;;11.50;99.90;;;;;;5075745;28;20040;-66
2023/05/14 03:23:42;;;;;;;17.63;9.73;;;11.50;99.90;;;;;;5093645;28;20560;-67
2023/05/14 03:26:08;;;;;;;17.50;9.98;;;11.40;99.90;;;;;;5093522;28;20038;-67
2023/05/14 03:28:33;;;;;;;16.73;9.98;;;11.40;99.90;;;;;;5093608;28;20072;-66
2023/05/14 03:30:59;;;;;;;13.65;9.65;;;11.40;99.90;;;;;;5093534;28;20407;-66
2023/05/14 03:33:25;;;;;;;16.70;9.68;;;11.50;99.90;;;;;;5093444;28;20032;-67
2023/05/14 03:35:51;;;;;;;18.40;9.77;;;11.50;99.90;;;;;;5093259;28;20534;-67
2023/05/14 03:38:16;;;;;;;16.40;10.18;;;11.60;99.90;;;;;;5093538;28;20101;-67
2023/05/14 03:40:43;;;;;;;20.00;11.85;;;11.60;99.90;;;;;;5093613;28;20449;-67
2023/05/14 03:43:09;;;;;;;19.30;9.18;;;11.60;99.90;;;;;;5093268;28;20488;-66
2023/05/14 03:45:34;;;;;;;19.13;11.20;;;11.60;99.90;;;;;;5093226;28;20042;-67
2023/05/14 03:48:00;;;;;;;17.48;10.00;;;11.50;99.90;;;;;;5092892;28;20123;-67
2023/05/14 03:50:26;;;;;;;14.82;9.48;;;11.60;99.90;;;;;;5093397;28;20115;-66
2023/05/14 03:52:52;;;;;;;15.48;9.25;;;11.60;99.90;;;;;;5093195;28;20078;-66
2023/05/14 03:55:18;;;;;;;15.75;9.00;;;11.60;99.90;;;;;;5093103;28;20036;-66
2023/05/14 03:57:44;;;;;;;19.20;10.18;;;11.70;99.90;;;;;;5093003;28;20036;-66
2023/05/14 04:00:10;;;;;;;18.48;9.10;;;11.70;99.90;;;;;;5093024;28;20036;-66
2023/05/14 04:02:36;;;;;;;15.85;9.10;;;11.70;99.90;;;;;;5092643;28;20380;-66
2023/05/14 04:05:03;;;;;;;19.83;10.43;;;11.70;99.90;;;;;;5092806;28;20104;-67
2023/05/14 04:07:28;;;;;;;13.95;9.23;;;11.70;99.90;;;;;;5092738;28;20036;-67
2023/05/14 04:09:54;;;;;;;17.70;10.70;;;11.70;99.90;;;;;;5092987;28;20051;-67
2023/05/14 04:12:19;;;;;;;14.82;9.57;;;11.80;99.90;;;;;;5092804;28;20036;-67
2023/05/14 04:14:45;;;;;;;17.13;9.82;;;11.80;99.90;;;;;;5092748;28;20384;-67
2023/05/14 04:17:11;;;;;;;12.98;9.65;;;11.80;99.90;;;;;;5074149;28;20075;-66
2023/05/14 04:19:36;;;;;;;23.42;10.50;;;11.80;99.90;;;;;;5092618;28;20435;-66
2023/05/14 04:22:02;;;;;;;16.67;9.60;;;11.70;99.90;;;;;;5092526;28;20569;-66
2023/05/14 04:24:28;;;;;;;19.38;10.65;;;11.70;99.90;;;;;;5092029;28;20032;-67
2023/05/14 04:26:53;;;;;;;20.65;10.25;;;11.60;99.90;;;;;;5092523;28;20127;-67
2023/05/14 04:29:19;;;;;;;19.25;11.27;;;11.70;99.90;;;;;;5092442;28;20123;-66
2023/05/14 04:31:45;;;;;;;17.33;10.45;;;11.70;99.90;;;;;;5092282;28;20123;-67
2023/05/14 04:34:10;;;;;;;21.15;11.35;;;11.70;99.90;;;;;;5092305;28;20048;-66
2023/05/14 04:36:36;;;;;;;20.83;12.30;;;11.70;99.90;;;;;;5092399;28;20032;-66
2023/05/14 04:39:02;;;;;;;17.98;11.63;;;11.70;99.90;;;;;;5092353;28;20036;-66
2023/05/14 04:41:27;;;;;;;18.00;11.05;;;11.70;99.90;;;;;;5092281;28;20035;-66
2023/05/14 04:43:55;;;;;;;18.50;10.18;;;11.80;99.90;;;;;;5092211;28;20398;-66
2023/05/14 04:46:21;;;;;;;16.52;10.23;;;11.80;99.90;;;;;;5092008;28;20067;-67
2023/05/14 04:48:47;;;;;;;18.38;11.23;;;11.80;99.90;;;;;;5091975;28;20495;-66
2023/05/14 04:51:13;;;;;;;21.90;10.85;;;11.80;99.90;;;;;;5084148;28;20539;-67
2023/05/14 04:53:39;;;;;;;18.77;10.63;;;11.80;99.90;;;;;;5054098;28;20094;-66
2023/05/14 04:56:05;;;;;;;22.17;11.35;;;11.90;99.90;;;;;;5071705;28;20040;-67
2023/05/14 04:58:31;;;;;;;19.45;11.05;;;11.90;99.90;;;;;;5071728;28;20416;-66
2023/05/14 05:00:58;;;;;;;22.73;10.65;;;11.90;99.90;;;;;;5096432;22;20105;-66
2023/05/14 05:03:23;;;;;;;26.40;11.90;;;12.00;99.90;;;;;;5110040;28;20044;-65
2023/05/14 05:05:49;;;;;;;17.60;10.98;;;11.90;99.90;;;;;;5112093;28;20053;-65
2023/05/14 05:08:15;;;;;;;20.73;12.10;;;12.10;99.90;;;;;;5112315;28;20031;-65
2023/05/14 05:10:41;;;;;;;22.77;11.88;;;11.90;99.90;;;;;;5094401;28;20052;-66
2023/05/14 05:13:06;;;;;;;20.13;11.00;;;11.90;99.90;;;;;;5112059;28;20122;-66
2023/05/14 05:15:32;;;;;;;17.75;11.23;;;11.90;99.90;;;;;;5111819;28;20464;-65
2023/05/14 05:17:57;;;;;;;23.40;12.45;;;11.90;99.90;;;;;;5112156;28;20072;-65
2023/05/14 05:20:23;;;;;;;24.70;10.45;;;11.90;99.90;;;;;;5112244;28;20059;-66
2023/05/14 05:22:49;;;;;;;25.52;12.77;;;12.10;99.90;;;;;;5112101;28;20501;-66
2023/05/14 05:25:15;;;;;;;20.75;11.52;;;12.10;99.90;;;;;;5112075;28;20040;-65
2023/05/14 05:27:40;;;;;;;20.67;10.75;;;12.10;99.90;;;;;;5111930;28;20521;-66
2023/05/14 05:30:07;;;;;;;21.08;10.07;;;12.30;99.90;;;;;;5111916;28;20520;-66
2023/05/14 05:32:32;;;;;;;21.27;10.45;;;12.30;99.90;;;;;;5111846;28;20118;-65
2023/05/14 05:34:58;;;;;;;19.30;10.40;;;12.40;99.90;;;;;;5113118;28;20120;-66
2023/05/14 05:37:24;;;;;;;23.58;10.35;;;12.50;99.90;;;;;;5116053;28;20031;-66
2023/05/14 05:39:49;;;;;;;16.00;10.05;;;12.60;99.90;;;;;;5116237;28;20067;-66
2023/05/14 05:42:15;;;;;;;19.65;11.27;;;12.70;99.90;;;;;;5116098;28;20031;-65
2023/05/14 05:44:40;;;;;;;24.77;10.98;;;12.70;99.90;;;;;;5115934;28;20036;-68
2023/05/14 05:47:06;;;;;;;22.48;9.40;;;12.80;99.90;;;;;;5116132;28;20032;-66
2023/05/14 05:49:32;;;;;;;20.52;10.50;;;12.90;99.90;;;;;;5115874;28;20065;-66
2023/05/14 05:51:57;;;;;;;20.77;10.48;;;13.00;99.90;;;;;;5115882;28;20086;-66
2023/05/14 05:54:24;;;;;;;19.35;9.93;;;13.00;99.90;;;;;;5115924;28;20475;-66
2023/05/14 05:56:49;;;;;;;18.40;10.32;;;13.20;99.90;;;;;;5115576;28;20529;-66
2023/05/14 05:59:15;;;;;;;22.25;9.50;;;13.20;99.90;;;;;;5115571;28;20063;-66
2023/05/14 06:01:42;;;;;;;18.27;9.60;;;13.40;99.90;;;;;;5115356;28;20461;-67
2023/05/14 06:04:08;;;;;;;19.90;10.95;;;13.60;99.90;;;;;;5115871;28;20040;-67
2023/05/14 06:06:34;;;;;;;19.13;10.02;;;13.80;99.90;;;;;;5115581;28;20043;-67
2023/05/14 06:09:00;;;;;;;18.90;9.20;;;14.00;99.90;;;;;;5097211;28;20457;-67
2023/05/14 06:11:26;;;;;;;21.17;9.77;;;14.10;99.90;;;;;;5115514;28;20035;-67
2023/05/14 06:13:52;;;;;;;21.33;9.70;;;14.20;99.90;;;;;;5115338;28;20039;-67
2023/05/14 06:16:17;;;;;;;18.70;8.20;;;14.30;99.90;;;;;;5115229;28;20127;-67
2023/05/14 06:18:43;;;;;;;21.83;9.77;;;14.40;99.90;;;;;;5115155;28;20131;-68
2023/05/14 06:21:09;;;;;;;21.05;8.50;;;14.50;99.90;;;;;;5115567;28;20032;-67
2023/05/14 06:23:34;;;;;;;16.73;9.38;;;14.70;99.90;;;;;;5115338;28;20039;-67
2023/05/14 06:26:00;;;;;;;14.98;8.02;;;14.80;99.90;;;;;;5115194;28;20043;-68
2023/05/14 06:28:25;;;;;;;14.80;9.48;;;15.00;99.90;;;;;;5114993;28;20039;-68
2023/05/14 06:30:52;;;;;;;18.92;9.35;;;15.30;99.90;;;;;;5114986;28;20116;-68
2023/05/14 06:33:20;;;;;;;16.55;7.68;;;15.40;99.90;;;;;;5115064;28;20537;-68
2023/05/14 06:35:46;;;;;;;16.08;7.95;;;15.50;99.90;;;;;;5114877;28;20514;-67
2023/05/14 06:38:11;;;;;;;14.70;6.82;;;15.60;99.90;;;;;;5114998;28;20043;-67
2023/05/14 06:40:37;;;;;;;19.67;7.65;;;15.40;99.90;;;;;;5115444;28;20035;-68
2023/05/14 06:43:05;;;;;;;16.15;7.53;;;15.40;99.90;;;;;;5114808;28;20156;-68
2023/05/14 06:45:30;;;;;;;18.85;7.40;;;15.50;99.90;;;;;;5114919;28;20043;-68
2023/05/14 06:47:56;;;;;;;15.07;8.65;;;15.80;99.90;;;;;;5114052;28;20031;-68
2023/05/14 06:50:21;;;;;;;14.15;6.78;;;15.90;99.90;;;;;;5114966;28;20111;-67
2023/05/14 06:52:47;;;;;;;21.42;7.72;;;15.80;99.90;;;;;;5114820;28;20499;-67
2023/05/14 06:55:13;;;;;;;17.88;7.32;;;16.00;99.90;;;;;;5114649;28;20419;-68
2023/05/14 06:57:38;;;;;;;18.73;8.10;;;16.00;99.90;;;;;;5114315;28;20063;-67
2023/05/14 07:00:08;;;;;;;13.80;7.88;;;16.00;99.90;;;;;;5114777;28;20051;-68
2023/05/14 07:02:34;;;;;;;16.13;6.93;;;15.70;99.90;;;;;;5114337;28;20134;-68
2023/05/14 07:05:00;;;;;;;21.08;8.25;;;15.70;99.90;;;;;;5096167;28;20082;-68
2023/05/14 07:07:29;;;;;;;13.02;6.68;;;15.60;99.90;;;;;;5114350;28;20067;-68
2023/05/14 07:09:55;;;;;;;14.93;7.18;;;15.70;99.90;;;;;;5096054;28;20108;-67
2023/05/14 07:12:20;;;;;;;9.93;6.10;;;15.70;99.90;;;;;;5114256;28;20043;-67
2023/05/14 07:14:46;;;;;;;16.08;6.50;;;15.90;99.90;;;;;;5096247;28;20040;-67
2023/05/14 07:17:11;;;;;;;13.55;6.10;;;16.30;99.90;;;;;;5114120;28;20047;-67
2023/05/14 07:19:37;;;;;;;10.57;6.22;;;16.60;99.90;;;;;;5114305;28;20038;-67
2023/05/14 07:22:03;;;;;;;16.30;6.20;;;16.60;99.90;;;;;;5114179;28;20123;-67
2023/05/14 07:24:28;;;;;;;17.60;6.78;;;16.90;99.90;;;;;;5114063;28;20059;-67
2023/05/14 07:26:56;;;;;;;11.88;5.97;;;17.00;99.90;;;;;;5113851;28;20039;-67
2023/05/14 07:29:21;;;;;;;15.60;6.53;;;17.10;99.90;;;;;;5114161;28;20124;-67
2023/05/14 07:31:47;;;;;;;10.98;5.57;;;17.20;99.90;;;;;;5114046;28;20071;-67
2023/05/14 07:34:12;;;;;;;12.55;6.10;;;17.20;99.90;;;;;;5113844;28;20044;-67
2023/05/14 07:36:38;;;;;;;11.88;6.07;;;17.20;99.90;;;;;;5095720;28;20084;-67
2023/05/14 07:39:04;;;;;;;10.38;5.80;;;17.20;99.90;;;;;;5113744;28;20515;-67
2023/05/14 07:41:29;;;;;;;12.27;6.00;;;17.40;99.90;;;;;;5113713;28;20028;-68
2023/05/14 07:43:55;;;;;;;16.85;6.45;;;17.40;99.90;;;;;;5113697;28;20103;-67
2023/05/14 07:46:20;;;;;;;10.23;5.93;;;17.30;99.90;;;;;;5113724;28;20048;-67
2023/05/14 07:48:46;;;;;;;12.98;7.03;;;17.20;99.90;;;;;;5113634;28;20051;-67
2023/05/14 07:51:12;;;;;;;15.15;6.70;;;17.40;99.90;;;;;;5113598;28;20036;-67
2023/05/14 07:53:37;;;;;;;12.90;6.30;;;17.40;99.90;;;;;;5095474;28;20477;-67
2023/05/14 07:56:03;;;;;;;12.02;6.65;;;17.50;99.90;;;;;;5113263;28;20043;-67
2023/05/14 07:58:31;;;;;;;11.45;6.07;;;17.40;99.90;;;;;;5112801;28;20039;-68
2023/05/14 08:00:56;;;;;;;18.38;6.63;;;17.50;99.90;;;;;;5095121;28;20046;-68
2023/05/14 08:03:22;;;;;;;12.32;6.22;;;17.40;99.90;;;;;;5111185;28;20039;-67
2023/05/14 08:05:47;;;;;;;10.00;6.03;;;17.50;99.90;;;;;;5112775;28;20081;-67
2023/05/14 08:08:13;;;;;;;11.07;6.43;;;17.60;99.90;;;;;;5112877;28;20562;-67
2023/05/14 08:10:39;;;;;;;16.55;6.85;;;17.70;99.90;;;;;;5112794;28;20035;-67
2023/05/14 08:13:04;;;;;;;11.60;6.57;;;17.80;99.90;;;;;;5094890;28;20123;-68
2023/05/14 08:15:30;;;;;;;12.75;6.60;;;18.00;99.90;;;;;;5112828;28;20398;-67
2023/05/14 08:17:57;;;;;;;9.43;5.25;;;18.20;99.90;;;;;;5112821;28;20040;-67
2023/05/14 08:20:23;;;;;;;15.75;5.72;;;18.20;99.90;;;;;;5112650;28;20039;-67
2023/05/14 08:22:48;;;;;;;9.63;5.57;;;18.20;99.90;;;;;;5112674;28;20119;-67
2023/05/14 08:25:14;;;;;;;10.70;5.80;;;18.50;99.90;;;;;;5112710;28;20032;-67
2023/05/14 08:27:39;;;;;;;12.82;6.30;;;18.60;99.90;;;;;;5112491;28;20035;-70
2023/05/14 08:30:06;;;;;;;11.23;6.97;;;18.80;99.90;;;;;;5112923;28;20035;-69
2023/05/14 08:32:31;;;;;;;11.73;6.00;;;18.90;99.90;;;;;;5094482;28;20529;-69
2023/05/14 08:34:57;;;;;;;12.73;5.65;;;19.00;99.90;;;;;;5094768;28;20075;-69
2023/05/14 08:37:22;;;;;;;15.02;6.25;;;19.50;99.90;;;;;;5112885;28;20506;-69
2023/05/14 08:39:48;;;;;;;18.17;7.45;;;19.60;99.90;;;;;;5112571;28;20040;-69
2023/05/14 08:42:19;;;;;;;10.73;5.57;;;19.60;99.90;;;;;;5112552;28;20039;-69
2023/05/14 08:44:48;;;;;;;8.00;5.22;;;19.60;99.90;;;;;;5094317;28;20039;-69
2023/05/14 08:47:16;;;;;;;9.57;6.13;;;19.50;99.90;;;;;;5093999;28;20047;-69
2023/05/14 08:49:45;;;;;;;11.18;6.07;;;19.50;99.90;;;;;;5112560;28;20052;-69
2023/05/14 08:52:11;;;;;;;9.68;5.40;;;19.40;99.90;;;;;;5112482;28;20069;-69
2023/05/14 08:54:38;;;;;;;10.15;5.93;;;19.30;99.90;;;;;;5112424;28;20046;-70
2023/05/14 08:57:05;;;;;;;10.73;6.57;;;19.00;99.90;;;;;;5094069;28;20118;-69
2023/05/14 08:59:30;;;;;;;11.82;6.40;;;19.00;99.90;;;;;;5094538;28;20550;-69
2023/05/14 09:02:00;;;;;;;8.50;6.07;;;19.00;99.90;;;;;;5094066;28;20123;-69
2023/05/14 09:04:27;;;;;;;9.43;6.90;;;18.90;99.90;;;;;;5094311;28;20432;-69
2023/05/14 09:06:54;;;;;;;11.43;7.00;;;19.00;99.90;;;;;;5112054;28;20114;-69
2023/05/14 09:09:23;;;;;;;12.50;7.25;;;19.10;99.90;;;;;;5093939;28;20118;-69
2023/05/14 09:11:50;;;;;;;12.48;7.22;;;19.10;99.90;;;;;;5111995;28;20518;-69
2023/05/14 09:14:16;;;;;;;10.80;6.88;;;19.30;99.90;;;;;;5112292;28;20050;-69
2023/05/14 09:16:44;;;;;;;9.90;6.65;;;19.50;99.90;;;;;;5093686;28;20040;-70
2023/05/14 09:19:11;;;;;;;10.75;7.40;;;19.60;99.90;;;;;;5112067;28;20485;-69
2023/05/14 09:21:37;;;;;;;14.35;8.43;;;19.70;99.90;;;;;;5093933;28;20036;-69
2023/05/14 09:24:03;;;;;;;14.88;7.63;;;19.60;99.90;;;;;;5112296;28;20245;-69
2023/05/14 09:26:31;;;;;;;10.40;7.45;;;19.70;99.90;;;;;;5077243;28;20043;-69
2023/05/14 09:29:01;;;;;;;14.98;8.48;;;19.70;99.90;;;;;;5112084;28;20035;-69
2023/05/14 09:31:31;;;;;;;10.88;8.10;;;19.70;99.90;;;;;;5111999;28;20135;-69
2023/05/14 09:33:58;;;;;;;15.25;7.85;;;19.70;99.40;;;;;;5093806;28;20177;-70
2023/05/14 09:36:26;;;;;;;11.85;8.73;;;19.70;99.40;;;;;;5093568;28;20039;-69
2023/05/14 09:38:52;;;;;;;13.18;7.47;;;19.60;99.90;;;;;;5076977;28;20035;-69
2023/05/14 09:41:18;;;;;;;12.50;7.60;;;19.80;98.10;;;;;;5111904;28;20039;-69
2023/05/14 09:43:43;;;;;;;12.10;8.32;;;19.80;96.60;;;;;;5093608;28;20525;-69
2023/05/14 09:46:09;;;;;;;8.80;7.28;;;19.50;96.50;;;;;;5093529;28;20112;-69
2023/05/14 09:48:35;;;;;;;11.95;7.78;;;19.80;96.00;;;;;;5093404;28;20039;-69
2023/05/14 09:51:00;;;;;;;8.88;6.75;;;20.00;94.10;;;;;;5111939;28;20122;-69
2023/05/14 09:53:27;;;;;;;7.55;6.15;;;20.10;92.70;;;;;;5111896;28;20118;-70
2023/05/14 09:55:52;;;;;;;11.25;6.28;;;20.30;91.10;;;;;;5093465;28;20039;-70
2023/05/14 09:58:18;;;;;;;8.93;6.63;;;20.40;90.30;;;;;;5093501;28;20449;-69
2023/05/14 10:00:46;;;;;;;8.02;5.88;;;20.60;90.40;;;;;;5111835;28;20038;-69
2023/05/14 10:03:14;;;;;;;11.50;5.88;;;20.60;86.50;;;;;;5111335;28;20036;-69
2023/05/14 10:05:43;;;;;;;8.82;5.18;;;20.60;84.50;;;;;;5111710;28;20032;-69
2023/05/14 10:08:18;;;;;;;9.32;4.45;;;20.70;81.10;;;;;;5111520;28;20581;-69
2023/05/14 10:10:43;;;;;;;7.20;5.07;;;20.70;77.30;;;;;;5111845;28;20047;-69
2023/05/14 10:13:13;;;;;;;7.85;5.10;;;20.50;76.80;;;;;;5111607;28;20072;-69
2023/05/14 10:15:46;;;;;;;8.02;4.32;;;20.60;76.00;;;;;;5111422;28;20143;-69
2023/05/14 10:18:16;;;;;;;6.53;4.40;;;20.70;72.10;;;;;;5111709;28;20051;-69
2023/05/14 10:20:42;;;;;;;9.23;4.97;;;20.80;72.50;;;;;;5111780;28;20114;-69
2023/05/14 10:23:08;;;;;;;8.07;4.47;;;20.80;74.00;;;;;;5113896;28;20035;-69
2023/05/14 10:25:35;;;;;;;8.00;5.38;;;20.80;73.10;;;;;;5115210;28;20039;-69
2023/05/14 10:28:01;;;;;;;5.57;4.53;;;20.90;76.90;;;;;;5115103;28;20051;-69
2023/05/14 10:30:27;;;;;;;4.95;4.43;;;20.80;75.80;;;;;;5115353;28;20044;-69
2023/05/14 10:33:17;;;;;;;8.65;4.10;;;20.50;73.60;;;;;;5115084;28;20035;-69
2023/05/14 10:36:03;;;;;;;7.00;4.43;;;20.50;75.10;;;;;;5096885;28;20429;-69
2023/05/14 10:38:33;;;;;;;7.35;4.07;;;20.60;73.90;;;;;;5096625;28;20063;-69
2023/05/14 10:41:04;;;;;;;4.82;3.60;;;20.70;72.90;;;;;;5115222;28;20032;-69
2023/05/14 10:43:38;;;;;;;4.97;3.88;;;20.70;76.20;;;;;;5115142;28;20039;-69
2023/05/14 10:46:04;;;;;;;7.07;4.65;;;20.80;72.20;;;;;;5114927;28;20454;-69
2023/05/14 10:48:31;;;;;;;6.05;3.90;;;20.70;70.80;;;;;;5114734;28;20040;-69
2023/05/14 10:50:57;;;;;;;7.00;4.10;;;20.70;71.60;;;;;;5114683;28;20118;-69
2023/05/14 10:53:37;;;;;;;5.50;4.65;;;20.80;71.70;;;;;;5114621;28;20067;-69
2023/05/14 10:56:10;;;;;;;7.45;4.55;;;20.80;82.90;;;;;;5114462;28;20448;-69
2023/05/14 10:58:38;;;;;;;5.43;4.10;;;20.60;77.50;;;;;;5114646;28;20035;-70
2023/05/14 11:01:06;;;;;;;8.02;4.35;;;20.80;75.80;;;;;;5079472;28;20479;-70
2023/05/14 11:03:41;;;;;;;7.40;4.68;;;20.80;75.90;;;;;;5114517;28;20035;-69
2023/05/14 11:06:08;;;;;;;7.85;4.40;;;20.80;74.40;;;;;;5096169;28;20505;-70
2023/05/14 11:08:33;;;;;;;5.82;4.63;;;20.80;74.60;;;;;;5095866;28;20499;-70
2023/05/14 11:10:59;;;;;;;5.88;4.45;;;20.80;75.70;;;;;;5114416;28;20043;-70
2023/05/14 11:13:27;;;;;;;6.35;4.22;;;20.80;75.20;;;;;;5114427;28;20107;-68
2023/05/14 11:15:54;;;;;;;9.00;4.93;;;21.00;73.20;;;;;;5096022;28;20123;-69
2023/05/14 11:18:31;;;;;;;8.05;4.57;;;21.10;71.40;;;;;;5114094;28;20046;-69
2023/05/14 11:20:58;;;;;;;4.90;3.95;;;21.20;79.30;;;;;;5114350;28;20403;-69
2023/05/14 11:23:24;;;;;;;4.47;4.05;;;21.10;74.20;;;;;;5095814;28;20047;-69
2023/05/14 11:25:52;;;;;;;5.55;3.92;;;21.10;73.00;;;;;;5096075;28;20437;-69
2023/05/14 11:28:18;;;;;;;6.60;4.05;;;21.30;69.40;;;;;;5113927;28;20046;-69
2023/05/14 11:30:45;;;;;;;4.93;3.83;;;21.30;67.40;;;;;;5095888;28;20517;-69
2023/05/14 11:33:11;;;;;;;7.90;4.95;;;21.50;67.30;;;;;;5114040;28;20092;-69
2023/05/14 11:35:38;;;;;;;6.68;4.18;;;21.60;65.80;;;;;;5095600;28;20036;-69
2023/05/14 11:38:03;;;;;;;6.95;4.30;;;21.50;65.10;;;;;;5113653;28;20039;-69
2023/05/14 11:40:29;;;;;;;7.05;3.67;;;21.50;64.60;;;;;;5113787;28;20078;-68
2023/05/14 11:42:55;;;;;;;7.07;4.28;;;21.70;63.90;;;;;;5095356;28;20044;-69
2023/05/14 11:45:25;;;;;;;6.78;3.58;;;21.70;63.40;;;;;;5113570;28;20039;-69
2023/05/14 11:47:52;;;;;;;6.35;4.38;;;21.70;62.40;;;;;;5095591;28;20067;-69
2023/05/14 11:50:18;;;;;;;5.25;4.15;;;21.80;62.00;;;;;;5113704;28;20118;-69
2023/05/14 11:52:44;;;;;;;4.30;3.20;;;21.80;60.70;;;;;;5113559;28;20131;-69
2023/05/14 11:55:11;;;;;;;5.78;3.70;;;21.90;58.30;;;;;;5113327;28;20394;-69
2023/05/14 11:57:36;;;;;;;4.78;3.30;;;21.90;56.20;;;;;;5113293;28;20036;-69
2023/05/14 12:00:05;;;;;;;4.07;3.22;;;21.90;55.50;;;;;;5113627;28;20070;-69
2023/05/14 12:02:30;;;;;;;3.58;2.92;;;21.90;53.40;;;;;;5095178;28;20172;-69
2023/05/14 12:04:56;;;;;;;6.78;3.25;;;21.90;52.20;;;;;;5113506;28;20538;-69
2023/05/14 12:07:28;;;;;;;4.43;3.20;;;21.80;52.50;;;;;;5113138;28;20039;-68
2023/05/14 12:09:53;;;;;;;8.80;2.70;;;21.90;52.70;;;;;;5113045;28;20067;-66
2023/05/14 12:12:21;;;;;;;4.13;3.40;;;22.20;51.70;;;;;;5112706;28;20135;-67
2023/05/14 12:14:47;;;;;;;6.10;2.55;;;22.20;51.00;;;;;;5113320;28;20396;-66
2023/05/14 12:17:14;;;;;;;4.53;2.78;;;22.30;50.10;;;;;;5112918;28;20118;-66
2023/05/14 12:19:42;;;;;;;4.85;2.60;;;22.40;50.20;;;;;;5113053;28;20165;-66
2023/05/14 12:22:09;;;;;;;3.88;2.30;;;22.50;50.50;;;;;;5113088;28;20040;-66
2023/05/14 12:24:35;;;;;;;4.65;3.00;;;22.60;48.80;;;;;;5113024;28;20031;-67
2023/05/14 12:27:01;;;;;;;4.72;2.55;;;22.60;45.60;;;;;;5094832;28;20433;-66
2023/05/14 12:29:27;;;;;;;6.25;3.10;;;22.70;44.90;;;;;;5113151;28;20085;-66
2023/05/14 12:31:56;;;;;;;4.03;2.65;;;22.60;44.10;;;;;;5112962;28;20047;-65